Terminal Aerodrome Forecast
Issued by NWS Wichita, KS

Home | Current Version | Previous Version | Text Only | Print | Product List | Glossary Off
Versions: 1 2 3 4 5 6 7 8 9 10 11 12 13 14 15 16 17 18 19 20 21

000
FTUS43 KICT 150521
TAFICT
TAF
KICT 150521Z 1506/1606 22009KT 6SM -DZ BR OVC010
     FM150700 25008KT 6SM -DZ BR VCSH OVC030
     FM150800 29008KT 5SM -DZ BR OVC030
     FM151000 32013KT 4SM BR OVC015
     FM151200 35016G24KT P6SM FEW150
     FM160300 VRB03KT P6SM FEW250=

USA.gov is the U.S. government's official web portal to all federal, state and local government web resources and services.